Hovedside
METAR-TAF:

METAR-TAF

Lufthavner :

Burlington / Mount Vernon, Washington, USA

breddegrad: 48-28-15N, lengdegrad: 122-25-15W, høyde over havet: 44 m

Gjeldene værobservasjon

Denne rapporten ble laget for 33 minutter siden, klokken 22:15 UTC
Vind 5 kt fra skiftende retning med vindkast opp mot 13 kt
Temperatur 22°C
Luftfuktighet 57%
Trykk 1023 hPa
Sikt: 16.1 km
Skyfri himmel

METAR: KBVS 172215Z AUTO VRB05G13KT 10SM CLR 22/13 A3022 RMK A01

Tid: 15:48 (22:48 UTC)


TAF: fraværende

Værobservasjoner og værvarsel for over 4000 flyplasser (METAR- og TAF-rapporter).

Tilgjengelige stasjoner er representert av de røde og gule prikkene på kartet.

Hold musepekeren over prikken for å se navnet på stasjonen.

Klikk så for å se værobservasjoner og -varsler.

For å forandre kartet kan du klikke på den grønne knappen med svart kryss for å zoome inn, på den grønne knappen med strek for å zoome ut, eller på de grønne pilene for å se tilstøtende kart.


METAR-TAF: